sensor_id;sensor_type;location;lat;lon;timestamp;P1;durP1;ratioP1;P2;durP2;ratioP2
9675;SDS011;4876;42.656;23.292;2023-02-21T00:00:24;12.90;;;6.97;;
9675;SDS011;4876;42.656;23.292;2023-02-21T00:03:09;13.90;;;7.87;;
9675;SDS011;4876;42.656;23.292;2023-02-21T00:05:53;10.73;;;6.90;;
9675;SDS011;4876;42.656;23.292;2023-02-21T00:08:37;14.43;;;7.77;;
9675;SDS011;4876;42.656;23.292;2023-02-21T00:11:22;12.57;;;6.23;;
9675;SDS011;4876;42.656;23.292;2023-02-21T00:14:07;13.83;;;7.13;;
9675;SDS011;4876;42.656;23.292;2023-02-21T00:16:52;12.63;;;7.20;;
9675;SDS011;4876;42.656;23.292;2023-02-21T00:19:36;8.57;;;4.57;;
9675;SDS011;4876;42.656;23.292;2023-02-21T00:22:20;11.70;;;5.93;;
9675;SDS011;4876;42.656;23.292;2023-02-21T00:25:04;10.90;;;6.10;;
9675;SDS011;4876;42.656;23.292;2023-02-21T00:27:49;10.50;;;4.70;;
9675;SDS011;4876;42.656;23.292;2023-02-21T00:30:34;18.63;;;6.00;;
9675;SDS011;4876;42.656;23.292;2023-02-21T00:33:18;10.93;;;6.43;;
9675;SDS011;4876;42.656;23.292;2023-02-21T00:36:03;14.27;;;6.03;;
9675;SDS011;4876;42.656;23.292;2023-02-21T00:38:49;9.37;;;5.13;;
9675;SDS011;4876;42.656;23.292;2023-02-21T00:41:33;11.70;;;5.80;;
9675;SDS011;4876;42.656;23.292;2023-02-21T00:44:18;9.90;;;5.40;;
9675;SDS011;4876;42.656;23.292;2023-02-21T00:47:03;16.30;;;6.67;;
9675;SDS011;4876;42.656;23.292;2023-02-21T00:49:48;12.20;;;5.77;;
9675;SDS011;4876;42.656;23.292;2023-02-21T00:52:32;7.67;;;5.33;;
9675;SDS011;4876;42.656;23.292;2023-02-21T00:55:16;9.30;;;5.10;;
9675;SDS011;4876;42.656;23.292;2023-02-21T00:58:00;5.37;;;2.87;;
9675;SDS011;4876;42.656;23.292;2023-02-21T01:00:45;8.33;;;4.27;;
9675;SDS011;4876;42.656;23.292;2023-02-21T01:03:30;14.17;;;4.73;;
9675;SDS011;4876;42.656;23.292;2023-02-21T01:06:15;6.23;;;3.97;;
9675;SDS011;4876;42.656;23.292;2023-02-21T01:08:59;9.07;;;4.80;;
9675;SDS011;4876;42.656;23.292;2023-02-21T01:11:43;6.17;;;4.23;;
9675;SDS011;4876;42.656;23.292;2023-02-21T01:14:28;8.87;;;4.30;;
9675;SDS011;4876;42.656;23.292;2023-02-21T01:17:12;8.33;;;4.40;;
9675;SDS011;4876;42.656;23.292;2023-02-21T01:19:58;11.30;;;4.30;;
9675;SDS011;4876;42.656;23.292;2023-02-21T01:22:43;5.67;;;3.60;;
9675;SDS011;4876;42.656;23.292;2023-02-21T01:25:28;5.60;;;3.10;;
9675;SDS011;4876;42.656;23.292;2023-02-21T01:28:13;9.47;;;5.23;;
9675;SDS011;4876;42.656;23.292;2023-02-21T01:30:57;6.40;;;4.23;;
9675;SDS011;4876;42.656;23.292;2023-02-21T01:33:41;7.63;;;4.40;;
9675;SDS011;4876;42.656;23.292;2023-02-21T01:36:27;6.70;;;4.43;;
9675;SDS011;4876;42.656;23.292;2023-02-21T01:39:11;6.37;;;4.47;;
9675;SDS011;4876;42.656;23.292;2023-02-21T01:41:56;6.97;;;3.57;;
9675;SDS011;4876;42.656;23.292;2023-02-21T01:44:41;8.53;;;4.00;;
9675;SDS011;4876;42.656;23.292;2023-02-21T01:47:27;6.47;;;4.80;;
9675;SDS011;4876;42.656;23.292;2023-02-21T01:50:13;5.80;;;3.80;;
9675;SDS011;4876;42.656;23.292;2023-02-21T01:53:01;8.47;;;4.17;;
9675;SDS011;4876;42.656;23.292;2023-02-21T01:55:48;5.77;;;3.80;;
9675;SDS011;4876;42.656;23.292;2023-02-21T01:58:32;7.30;;;4.57;;
9675;SDS011;4876;42.656;23.292;2023-02-21T02:01:21;6.77;;;3.30;;
9675;SDS011;4876;42.656;23.292;2023-02-21T02:04:11;6.90;;;4.57;;
9675;SDS011;4876;42.656;23.292;2023-02-21T02:06:55;7.13;;;4.17;;
9675;SDS011;4876;42.656;23.292;2023-02-21T02:09:41;6.50;;;4.10;;
9675;SDS011;4876;42.656;23.292;2023-02-21T02:12:30;5.33;;;3.80;;
9675;SDS011;4876;42.656;23.292;2023-02-21T02:15:11;5.63;;;3.60;;
9675;SDS011;4876;42.656;23.292;2023-02-21T02:17:51;7.73;;;4.20;;
9675;SDS011;4876;42.656;23.292;2023-02-21T02:23:42;6.23;;;3.90;;
9675;SDS011;4876;42.656;23.292;2023-02-21T02:26:38;6.47;;;3.33;;
9675;SDS011;4876;42.656;23.292;2023-02-21T02:29:57;5.93;;;3.70;;
9675;SDS011;4876;42.656;23.292;2023-02-21T02:32:45;9.23;;;4.03;;
9675;SDS011;4876;42.656;23.292;2023-02-21T02:35:28;4.40;;;2.77;;
9675;SDS011;4876;42.656;23.292;2023-02-21T02:37:58;6.00;;;3.80;;
9675;SDS011;4876;42.656;23.292;2023-02-21T02:40:33;5.63;;;3.40;;
9675;SDS011;4876;42.656;23.292;2023-02-21T02:43:08;8.13;;;3.87;;
9675;SDS011;4876;42.656;23.292;2023-02-21T02:45:42;4.73;;;3.37;;
9675;SDS011;4876;42.656;23.292;2023-02-21T02:48:13;7.53;;;4.10;;
9675;SDS011;4876;42.656;23.292;2023-02-21T02:50:48;8.27;;;3.30;;
9675;SDS011;4876;42.656;23.292;2023-02-21T02:53:17;4.87;;;3.40;;
9675;SDS011;4876;42.656;23.292;2023-02-21T02:55:47;11.33;;;4.10;;
9675;SDS011;4876;42.656;23.292;2023-02-21T02:58:17;5.27;;;3.77;;
9675;SDS011;4876;42.656;23.292;2023-02-21T03:00:48;4.83;;;3.23;;
9675;SDS011;4876;42.656;23.292;2023-02-21T03:03:37;10.67;;;3.50;;
9675;SDS011;4876;42.656;23.292;2023-02-21T03:06:21;6.07;;;3.67;;
9675;SDS011;4876;42.656;23.292;2023-02-21T03:08:56;9.33;;;3.87;;
9675;SDS011;4876;42.656;23.292;2023-02-21T03:11:28;8.60;;;4.60;;
9675;SDS011;4876;42.656;23.292;2023-02-21T03:13:56;1.63;;;1.53;;
9675;SDS011;4876;42.656;23.292;2023-02-21T03:16:31;5.67;;;3.40;;
9675;SDS011;4876;42.656;23.292;2023-02-21T03:19:03;5.10;;;2.40;;
9675;SDS011;4876;42.656;23.292;2023-02-21T03:21:35;7.97;;;2.93;;
9675;SDS011;4876;42.656;23.292;2023-02-21T03:24:06;7.47;;;3.53;;
9675;SDS011;4876;42.656;23.292;2023-02-21T03:26:35;5.47;;;2.90;;
9675;SDS011;4876;42.656;23.292;2023-02-21T03:29:06;2.60;;;2.07;;
9675;SDS011;4876;42.656;23.292;2023-02-21T03:31:34;5.00;;;3.20;;
9675;SDS011;4876;42.656;23.292;2023-02-21T03:34:04;6.27;;;3.17;;
9675;SDS011;4876;42.656;23.292;2023-02-21T03:36:31;7.17;;;2.60;;
9675;SDS011;4876;42.656;23.292;2023-02-21T03:39:00;7.07;;;3.43;;
9675;SDS011;4876;42.656;23.292;2023-02-21T03:41:27;6.93;;;3.13;;
9675;SDS011;4876;42.656;23.292;2023-02-21T03:43:53;3.93;;;2.20;;
9675;SDS011;4876;42.656;23.292;2023-02-21T03:46:20;4.03;;;2.50;;
9675;SDS011;4876;42.656;23.292;2023-02-21T03:48:49;6.93;;;3.13;;
9675;SDS011;4876;42.656;23.292;2023-02-21T03:51:16;4.83;;;3.17;;
9675;SDS011;4876;42.656;23.292;2023-02-21T03:53:42;7.93;;;3.10;;
9675;SDS011;4876;42.656;23.292;2023-02-21T03:56:11;5.87;;;2.77;;
9675;SDS011;4876;42.656;23.292;2023-02-21T03:58:37;8.60;;;3.57;;
9675;SDS011;4876;42.656;23.292;2023-02-21T04:01:04;7.27;;;3.23;;
9675;SDS011;4876;42.656;23.292;2023-02-21T04:03:31;6.97;;;3.43;;
9675;SDS011;4876;42.656;23.292;2023-02-21T04:05:57;2.63;;;2.13;;
9675;SDS011;4876;42.656;23.292;2023-02-21T04:08:24;7.37;;;3.57;;
9675;SDS011;4876;42.656;23.292;2023-02-21T04:10:51;2.80;;;2.30;;
9675;SDS011;4876;42.656;23.292;2023-02-21T04:13:19;3.40;;;2.47;;
9675;SDS011;4876;42.656;23.292;2023-02-21T04:15:47;6.30;;;3.37;;
9675;SDS011;4876;42.656;23.292;2023-02-21T04:18:14;7.80;;;3.47;;
9675;SDS011;4876;42.656;23.292;2023-02-21T04:20:41;2.10;;;1.80;;
9675;SDS011;4876;42.656;23.292;2023-02-21T04:23:08;4.70;;;2.60;;
9675;SDS011;4876;42.656;23.292;2023-02-21T04:25:34;9.03;;;4.03;;
9675;SDS011;4876;42.656;23.292;2023-02-21T04:28:01;5.13;;;3.20;;
9675;SDS011;4876;42.656;23.292;2023-02-21T04:30:29;3.77;;;2.53;;
9675;SDS011;4876;42.656;23.292;2023-02-21T04:32:56;5.33;;;3.33;;
9675;SDS011;4876;42.656;23.292;2023-02-21T04:35:23;6.27;;;3.50;;
9675;SDS011;4876;42.656;23.292;2023-02-21T04:37:50;8.43;;;4.97;;
9675;SDS011;4876;42.656;23.292;2023-02-21T04:40:17;7.43;;;4.63;;
9675;SDS011;4876;42.656;23.292;2023-02-21T04:42:44;2.33;;;1.73;;
9675;SDS011;4876;42.656;23.292;2023-02-21T04:45:10;8.90;;;3.60;;
9675;SDS011;4876;42.656;23.292;2023-02-21T04:47:38;9.80;;;4.47;;
9675;SDS011;4876;42.656;23.292;2023-02-21T04:50:05;7.40;;;4.77;;
9675;SDS011;4876;42.656;23.292;2023-02-21T04:52:32;9.13;;;3.67;;
9675;SDS011;4876;42.656;23.292;2023-02-21T04:54:59;6.33;;;3.83;;
9675;SDS011;4876;42.656;23.292;2023-02-21T04:57:26;8.37;;;4.00;;
9675;SDS011;4876;42.656;23.292;2023-02-21T04:59:56;12.57;;;5.77;;
9675;SDS011;4876;42.656;23.292;2023-02-21T05:02:26;7.13;;;5.13;;
9675;SDS011;4876;42.656;23.292;2023-02-21T05:04:54;8.07;;;4.50;;
9675;SDS011;4876;42.656;23.292;2023-02-21T05:07:21;8.30;;;5.00;;
9675;SDS011;4876;42.656;23.292;2023-02-21T05:09:47;10.15;;;5.50;;
9675;SDS011;4876;42.656;23.292;2023-02-21T05:12:14;7.33;;;5.10;;
9675;SDS011;4876;42.656;23.292;2023-02-21T05:14:41;9.43;;;3.90;;
9675;SDS011;4876;42.656;23.292;2023-02-21T05:17:08;11.10;;;4.50;;
9675;SDS011;4876;42.656;23.292;2023-02-21T05:19:35;7.10;;;3.73;;
9675;SDS011;4876;42.656;23.292;2023-02-21T05:22:03;9.27;;;3.47;;
9675;SDS011;4876;42.656;23.292;2023-02-21T05:24:31;9.87;;;4.00;;
9675;SDS011;4876;42.656;23.292;2023-02-21T05:26:58;7.90;;;4.83;;
9675;SDS011;4876;42.656;23.292;2023-02-21T05:29:25;12.07;;;4.97;;
9675;SDS011;4876;42.656;23.292;2023-02-21T05:31:52;5.70;;;3.50;;
9675;SDS011;4876;42.656;23.292;2023-02-21T05:34:19;13.90;;;4.40;;
9675;SDS011;4876;42.656;23.292;2023-02-21T05:36:46;10.17;;;4.73;;
9675;SDS011;4876;42.656;23.292;2023-02-21T05:39:14;10.57;;;3.83;;
9675;SDS011;4876;42.656;23.292;2023-02-21T05:41:45;8.30;;;4.70;;
9675;SDS011;4876;42.656;23.292;2023-02-21T05:44:12;11.43;;;5.13;;
9675;SDS011;4876;42.656;23.292;2023-02-21T05:46:39;15.23;;;4.67;;
9675;SDS011;4876;42.656;23.292;2023-02-21T05:49:07;6.57;;;4.73;;
9675;SDS011;4876;42.656;23.292;2023-02-21T05:51:34;8.43;;;5.20;;
9675;SDS011;4876;42.656;23.292;2023-02-21T05:54:02;7.27;;;4.80;;
9675;SDS011;4876;42.656;23.292;2023-02-21T05:56:30;9.33;;;4.60;;
9675;SDS011;4876;42.656;23.292;2023-02-21T05:59:03;10.50;;;5.17;;
9675;SDS011;4876;42.656;23.292;2023-02-21T06:01:29;12.63;;;5.23;;
9675;SDS011;4876;42.656;23.292;2023-02-21T06:03:56;9.27;;;5.10;;
9675;SDS011;4876;42.656;23.292;2023-02-21T06:06:23;9.77;;;5.17;;
9675;SDS011;4876;42.656;23.292;2023-02-21T06:08:50;6.30;;;4.30;;
9675;SDS011;4876;42.656;23.292;2023-02-21T06:11:21;12.70;;;6.27;;
9675;SDS011;4876;42.656;23.292;2023-02-21T06:13:51;10.07;;;5.07;;
9675;SDS011;4876;42.656;23.292;2023-02-21T06:16:19;8.60;;;4.40;;
9675;SDS011;4876;42.656;23.292;2023-02-21T06:18:48;12.00;;;4.43;;
9675;SDS011;4876;42.656;23.292;2023-02-21T06:21:15;14.23;;;4.60;;
9675;SDS011;4876;42.656;23.292;2023-02-21T06:23:42;5.80;;;3.87;;
9675;SDS011;4876;42.656;23.292;2023-02-21T06:26:08;7.67;;;5.37;;
9675;SDS011;4876;42.656;23.292;2023-02-21T06:28:35;5.43;;;3.23;;
9675;SDS011;4876;42.656;23.292;2023-02-21T06:31:04;10.70;;;4.03;;
9675;SDS011;4876;42.656;23.292;2023-02-21T06:33:31;7.87;;;3.73;;
9675;SDS011;4876;42.656;23.292;2023-02-21T06:36:02;11.07;;;4.97;;
9675;SDS011;4876;42.656;23.292;2023-02-21T06:38:30;7.27;;;4.47;;
9675;SDS011;4876;42.656;23.292;2023-02-21T06:40:56;10.20;;;4.23;;
9675;SDS011;4876;42.656;23.292;2023-02-21T06:43:23;13.13;;;3.53;;
9675;SDS011;4876;42.656;23.292;2023-02-21T06:45:50;9.20;;;3.43;;
9675;SDS011;4876;42.656;23.292;2023-02-21T06:48:18;5.23;;;3.37;;
9675;SDS011;4876;42.656;23.292;2023-02-21T06:50:45;8.50;;;3.20;;
9675;SDS011;4876;42.656;23.292;2023-02-21T06:53:12;8.03;;;3.30;;
9675;SDS011;4876;42.656;23.292;2023-02-21T06:55:38;10.70;;;3.73;;
9675;SDS011;4876;42.656;23.292;2023-02-21T06:58:05;7.93;;;4.30;;
9675;SDS011;4876;42.656;23.292;2023-02-21T07:00:32;9.03;;;4.70;;
9675;SDS011;4876;42.656;23.292;2023-02-21T07:02:59;12.60;;;3.47;;
9675;SDS011;4876;42.656;23.292;2023-02-21T07:05:27;17.30;;;4.33;;
9675;SDS011;4876;42.656;23.292;2023-02-21T07:07:58;9.83;;;4.73;;
9675;SDS011;4876;42.656;23.292;2023-02-21T07:10:25;18.73;;;4.03;;
9675;SDS011;4876;42.656;23.292;2023-02-21T07:12:52;9.27;;;4.30;;
9675;SDS011;4876;42.656;23.292;2023-02-21T07:15:19;9.47;;;4.63;;
9675;SDS011;4876;42.656;23.292;2023-02-21T07:17:46;6.43;;;3.57;;
9675;SDS011;4876;42.656;23.292;2023-02-21T07:20:13;6.73;;;3.80;;
9675;SDS011;4876;42.656;23.292;2023-02-21T07:22:41;15.90;;;4.77;;
9675;SDS011;4876;42.656;23.292;2023-02-21T07:25:08;7.67;;;3.37;;
9675;SDS011;4876;42.656;23.292;2023-02-21T07:27:40;14.63;;;5.03;;
9675;SDS011;4876;42.656;23.292;2023-02-21T07:30:08;14.27;;;4.90;;
9675;SDS011;4876;42.656;23.292;2023-02-21T07:32:35;17.20;;;5.47;;
9675;SDS011;4876;42.656;23.292;2023-02-21T07:35:02;19.30;;;5.40;;
9675;SDS011;4876;42.656;23.292;2023-02-21T07:37:29;18.37;;;5.60;;
9675;SDS011;4876;42.656;23.292;2023-02-21T07:39:57;14.07;;;5.37;;
9675;SDS011;4876;42.656;23.292;2023-02-21T07:42:24;12.13;;;4.87;;
9675;SDS011;4876;42.656;23.292;2023-02-21T07:44:53;10.07;;;5.13;;
9675;SDS011;4876;42.656;23.292;2023-02-21T07:47:22;11.57;;;5.60;;
9675;SDS011;4876;42.656;23.292;2023-02-21T07:49:49;14.10;;;4.93;;
9675;SDS011;4876;42.656;23.292;2023-02-21T07:52:18;8.77;;;5.50;;
9675;SDS011;4876;42.656;23.292;2023-02-21T07:54:45;8.30;;;4.43;;
9675;SDS011;4876;42.656;23.292;2023-02-21T07:57:13;10.50;;;5.37;;
9675;SDS011;4876;42.656;23.292;2023-02-21T07:59:40;9.73;;;5.83;;
9675;SDS011;4876;42.656;23.292;2023-02-21T08:02:08;13.57;;;6.13;;
9675;SDS011;4876;42.656;23.292;2023-02-21T08:04:35;5.63;;;2.77;;
9675;SDS011;4876;42.656;23.292;2023-02-21T08:07:02;10.23;;;4.30;;
9675;SDS011;4876;42.656;23.292;2023-02-21T08:09:30;17.50;;;6.93;;
9675;SDS011;4876;42.656;23.292;2023-02-21T08:11:57;22.53;;;6.20;;
9675;SDS011;4876;42.656;23.292;2023-02-21T08:14:25;21.07;;;6.50;;
9675;SDS011;4876;42.656;23.292;2023-02-21T08:16:52;14.03;;;5.37;;
9675;SDS011;4876;42.656;23.292;2023-02-21T08:19:19;21.00;;;6.77;;
9675;SDS011;4876;42.656;23.292;2023-02-21T08:21:46;11.23;;;5.63;;
9675;SDS011;4876;42.656;23.292;2023-02-21T08:24:14;10.57;;;5.93;;
9675;SDS011;4876;42.656;23.292;2023-02-21T08:26:41;13.67;;;5.03;;
9675;SDS011;4876;42.656;23.292;2023-02-21T08:29:09;18.67;;;6.70;;
9675;SDS011;4876;42.656;23.292;2023-02-21T08:31:38;13.13;;;6.37;;
9675;SDS011;4876;42.656;23.292;2023-02-21T08:34:06;14.80;;;6.40;;
9675;SDS011;4876;42.656;23.292;2023-02-21T08:36:34;12.83;;;5.40;;
9675;SDS011;4876;42.656;23.292;2023-02-21T08:39:02;16.90;;;5.40;;
9675;SDS011;4876;42.656;23.292;2023-02-21T08:41:33;16.03;;;5.93;;
9675;SDS011;4876;42.656;23.292;2023-02-21T08:44:01;19.10;;;7.30;;
9675;SDS011;4876;42.656;23.292;2023-02-21T08:46:27;13.40;;;5.77;;
9675;SDS011;4876;42.656;23.292;2023-02-21T08:48:56;15.10;;;7.03;;
9675;SDS011;4876;42.656;23.292;2023-02-21T08:51:23;9.70;;;5.30;;
9675;SDS011;4876;42.656;23.292;2023-02-21T08:53:50;16.17;;;6.70;;
9675;SDS011;4876;42.656;23.292;2023-02-21T08:56:17;12.70;;;6.90;;
9675;SDS011;4876;42.656;23.292;2023-02-21T08:58:44;17.23;;;7.40;;
9675;SDS011;4876;42.656;23.292;2023-02-21T09:01:11;14.93;;;6.93;;
9675;SDS011;4876;42.656;23.292;2023-02-21T09:03:38;21.03;;;5.57;;
9675;SDS011;4876;42.656;23.292;2023-02-21T09:06:06;14.87;;;4.50;;
9675;SDS011;4876;42.656;23.292;2023-02-21T09:08:34;19.33;;;4.97;;
9675;SDS011;4876;42.656;23.292;2023-02-21T09:11:01;23.63;;;7.00;;
9675;SDS011;4876;42.656;23.292;2023-02-21T09:13:28;17.80;;;6.07;;
9675;SDS011;4876;42.656;23.292;2023-02-21T09:15:57;18.03;;;6.03;;
9675;SDS011;4876;42.656;23.292;2023-02-21T09:18:24;22.10;;;6.40;;
9675;SDS011;4876;42.656;23.292;2023-02-21T09:20:52;17.60;;;5.80;;
9675;SDS011;4876;42.656;23.292;2023-02-21T09:23:23;10.30;;;3.73;;
9675;SDS011;4876;42.656;23.292;2023-02-21T09:25:51;13.20;;;5.30;;
9675;SDS011;4876;42.656;23.292;2023-02-21T09:28:18;10.37;;;5.30;;
9675;SDS011;4876;42.656;23.292;2023-02-21T09:30:45;13.40;;;5.00;;
9675;SDS011;4876;42.656;23.292;2023-02-21T09:33:12;20.83;;;4.80;;
9675;SDS011;4876;42.656;23.292;2023-02-21T09:35:40;16.63;;;5.43;;
9675;SDS011;4876;42.656;23.292;2023-02-21T09:38:07;17.57;;;5.07;;
9675;SDS011;4876;42.656;23.292;2023-02-21T09:40:39;20.77;;;5.30;;
9675;SDS011;4876;42.656;23.292;2023-02-21T09:43:11;15.60;;;5.40;;
9675;SDS011;4876;42.656;23.292;2023-02-21T09:45:41;13.20;;;6.00;;
9675;SDS011;4876;42.656;23.292;2023-02-21T09:48:10;12.93;;;4.40;;
9675;SDS011;4876;42.656;23.292;2023-02-21T09:50:40;19.33;;;5.70;;
9675;SDS011;4876;42.656;23.292;2023-02-21T09:53:10;13.17;;;5.33;;
9675;SDS011;4876;42.656;23.292;2023-02-21T09:55:42;15.33;;;5.93;;
9675;SDS011;4876;42.656;23.292;2023-02-21T09:58:10;16.57;;;5.83;;
9675;SDS011;4876;42.656;23.292;2023-02-21T10:00:38;17.10;;;6.50;;
9675;SDS011;4876;42.656;23.292;2023-02-21T10:03:13;9.53;;;4.90;;
9675;SDS011;4876;42.656;23.292;2023-02-21T10:05:52;13.93;;;5.97;;
9675;SDS011;4876;42.656;23.292;2023-02-21T10:08:29;15.37;;;5.70;;
9675;SDS011;4876;42.656;23.292;2023-02-21T10:11:05;10.67;;;5.47;;
9675;SDS011;4876;42.656;23.292;2023-02-21T10:13:45;8.70;;;4.63;;
9675;SDS011;4876;42.656;23.292;2023-02-21T10:16:19;12.03;;;4.90;;
9675;SDS011;4876;42.656;23.292;2023-02-21T10:18:55;16.47;;;5.40;;
9675;SDS011;4876;42.656;23.292;2023-02-21T10:21:29;10.40;;;5.43;;
9675;SDS011;4876;42.656;23.292;2023-02-21T10:24:01;10.20;;;3.60;;
9675;SDS011;4876;42.656;23.292;2023-02-21T10:26:37;9.50;;;2.23;;
9675;SDS011;4876;42.656;23.292;2023-02-21T10:29:08;13.13;;;2.00;;
9675;SDS011;4876;42.656;23.292;2023-02-21T10:31:45;4.33;;;1.27;;
9675;SDS011;4876;42.656;23.292;2023-02-21T10:34:15;2.47;;;1.30;;
9675;SDS011;4876;42.656;23.292;2023-02-21T10:36:47;2.93;;;1.50;;
9675;SDS011;4876;42.656;23.292;2023-02-21T10:39:16;4.93;;;1.33;;
9675;SDS011;4876;42.656;23.292;2023-02-21T10:41:47;5.83;;;1.90;;
9675;SDS011;4876;42.656;23.292;2023-02-21T10:44:17;4.17;;;1.60;;
9675;SDS011;4876;42.656;23.292;2023-02-21T10:46:48;4.57;;;1.60;;
9675;SDS011;4876;42.656;23.292;2023-02-21T10:49:21;2.33;;;1.47;;
9675;SDS011;4876;42.656;23.292;2023-02-21T10:52:03;4.60;;;1.53;;
9675;SDS011;4876;42.656;23.292;2023-02-21T10:54:32;1.87;;;1.40;;
9675;SDS011;4876;42.656;23.292;2023-02-21T10:57:00;2.57;;;1.60;;
9675;SDS011;4876;42.656;23.292;2023-02-21T10:59:29;9.27;;;1.60;;
9675;SDS011;4876;42.656;23.292;2023-02-21T11:01:59;5.57;;;1.80;;
9675;SDS011;4876;42.656;23.292;2023-02-21T11:04:29;2.83;;;1.40;;
9675;SDS011;4876;42.656;23.292;2023-02-21T11:07:00;2.03;;;1.60;;
9675;SDS011;4876;42.656;23.292;2023-02-21T11:09:32;2.60;;;1.67;;
9675;SDS011;4876;42.656;23.292;2023-02-21T11:12:04;3.40;;;1.60;;
9675;SDS011;4876;42.656;23.292;2023-02-21T11:14:41;6.30;;;1.90;;
9675;SDS011;4876;42.656;23.292;2023-02-21T11:17:14;2.03;;;1.33;;
9675;SDS011;4876;42.656;23.292;2023-02-21T11:19:44;1.77;;;1.53;;
9675;SDS011;4876;42.656;23.292;2023-02-21T11:22:20;2.77;;;1.77;;
9675;SDS011;4876;42.656;23.292;2023-02-21T11:24:57;3.30;;;1.67;;
9675;SDS011;4876;42.656;23.292;2023-02-21T11:27:28;2.77;;;1.57;;
9675;SDS011;4876;42.656;23.292;2023-02-21T11:29:57;4.83;;;1.60;;
9675;SDS011;4876;42.656;23.292;2023-02-21T11:32:27;10.83;;;2.67;;
9675;SDS011;4876;42.656;23.292;2023-02-21T11:35:01;4.03;;;1.63;;
9675;SDS011;4876;42.656;23.292;2023-02-21T11:37:29;4.17;;;2.23;;
9675;SDS011;4876;42.656;23.292;2023-02-21T11:39:57;5.55;;;2.20;;
9675;SDS011;4876;42.656;23.292;2023-02-21T11:42:28;3.10;;;1.80;;
9675;SDS011;4876;42.656;23.292;2023-02-21T11:45:05;6.37;;;1.70;;
9675;SDS011;4876;42.656;23.292;2023-02-21T11:47:42;2.63;;;1.70;;
9675;SDS011;4876;42.656;23.292;2023-02-21T11:50:14;3.50;;;1.80;;
9675;SDS011;4876;42.656;23.292;2023-02-21T11:52:48;6.13;;;1.70;;
9675;SDS011;4876;42.656;23.292;2023-02-21T11:55:20;7.17;;;2.03;;
9675;SDS011;4876;42.656;23.292;2023-02-21T11:57:54;3.57;;;1.93;;
9675;SDS011;4876;42.656;23.292;2023-02-21T12:00:28;5.37;;;1.50;;
9675;SDS011;4876;42.656;23.292;2023-02-21T12:03:06;3.97;;;2.20;;
9675;SDS011;4876;42.656;23.292;2023-02-21T12:05:56;4.53;;;2.10;;
9675;SDS011;4876;42.656;23.292;2023-02-21T12:08:35;3.93;;;1.90;;
9675;SDS011;4876;42.656;23.292;2023-02-21T12:11:09;3.33;;;2.10;;
9675;SDS011;4876;42.656;23.292;2023-02-21T12:13:46;7.13;;;2.00;;
9675;SDS011;4876;42.656;23.292;2023-02-21T12:16:22;2.93;;;1.77;;
9675;SDS011;4876;42.656;23.292;2023-02-21T12:19:00;3.23;;;1.60;;
9675;SDS011;4876;42.656;23.292;2023-02-21T12:21:47;3.83;;;1.87;;
9675;SDS011;4876;42.656;23.292;2023-02-21T12:24:31;11.10;;;2.70;;
9675;SDS011;4876;42.656;23.292;2023-02-21T12:27:12;7.17;;;2.63;;
9675;SDS011;4876;42.656;23.292;2023-02-21T12:29:49;5.77;;;2.27;;
9675;SDS011;4876;42.656;23.292;2023-02-21T12:32:36;4.60;;;1.77;;
9675;SDS011;4876;42.656;23.292;2023-02-21T12:35:21;8.87;;;1.97;;
9675;SDS011;4876;42.656;23.292;2023-02-21T12:38:06;3.53;;;1.87;;
9675;SDS011;4876;42.656;23.292;2023-02-21T12:40:42;3.13;;;1.70;;
9675;SDS011;4876;42.656;23.292;2023-02-21T12:43:23;4.37;;;2.63;;
9675;SDS011;4876;42.656;23.292;2023-02-21T12:46:03;7.63;;;2.30;;
9675;SDS011;4876;42.656;23.292;2023-02-21T12:48:40;4.30;;;1.93;;
9675;SDS011;4876;42.656;23.292;2023-02-21T12:51:12;6.17;;;1.70;;
9675;SDS011;4876;42.656;23.292;2023-02-21T12:53:45;7.53;;;2.40;;
9675;SDS011;4876;42.656;23.292;2023-02-21T12:56:17;2.60;;;1.87;;
9675;SDS011;4876;42.656;23.292;2023-02-21T12:58:48;3.40;;;2.17;;
9675;SDS011;4876;42.656;23.292;2023-02-21T13:01:21;6.00;;;2.67;;
9675;SDS011;4876;42.656;23.292;2023-02-21T13:03:54;2.67;;;2.07;;
9675;SDS011;4876;42.656;23.292;2023-02-21T13:06:37;3.73;;;1.90;;
9675;SDS011;4876;42.656;23.292;2023-02-21T13:09:12;4.70;;;1.97;;
9675;SDS011;4876;42.656;23.292;2023-02-21T13:11:48;7.03;;;2.40;;
9675;SDS011;4876;42.656;23.292;2023-02-21T13:14:22;3.13;;;1.87;;
9675;SDS011;4876;42.656;23.292;2023-02-21T13:16:54;5.57;;;2.40;;
9675;SDS011;4876;42.656;23.292;2023-02-21T13:19:21;3.53;;;1.77;;
9675;SDS011;4876;42.656;23.292;2023-02-21T13:21:55;7.07;;;1.80;;
9675;SDS011;4876;42.656;23.292;2023-02-21T13:24:51;6.17;;;1.93;;
9675;SDS011;4876;42.656;23.292;2023-02-21T13:27:33;4.57;;;2.00;;
9675;SDS011;4876;42.656;23.292;2023-02-21T13:30:20;9.03;;;4.03;;
9675;SDS011;4876;42.656;23.292;2023-02-21T13:32:52;3.70;;;2.30;;
9675;SDS011;4876;42.656;23.292;2023-02-21T13:35:25;5.40;;;2.00;;
9675;SDS011;4876;42.656;23.292;2023-02-21T13:37:56;4.43;;;2.13;;
9675;SDS011;4876;42.656;23.292;2023-02-21T13:40:30;2.70;;;1.50;;
9675;SDS011;4876;42.656;23.292;2023-02-21T13:43:01;4.17;;;1.70;;
9675;SDS011;4876;42.656;23.292;2023-02-21T13:45:31;4.23;;;1.90;;
9675;SDS011;4876;42.656;23.292;2023-02-21T13:50:57;4.93;;;1.83;;
9675;SDS011;4876;42.656;23.292;2023-02-21T13:53:26;4.50;;;1.70;;
9675;SDS011;4876;42.656;23.292;2023-02-21T13:59:29;8.73;;;2.13;;
9675;SDS011;4876;42.656;23.292;2023-02-21T14:02:19;6.20;;;2.57;;
9675;SDS011;4876;42.656;23.292;2023-02-21T14:10:40;5.47;;;2.20;;
9675;SDS011;4876;42.656;23.292;2023-02-21T14:13:18;6.83;;;2.40;;
9675;SDS011;4876;42.656;23.292;2023-02-21T14:15:48;9.43;;;4.47;;
9675;SDS011;4876;42.656;23.292;2023-02-21T14:18:17;5.23;;;2.33;;
9675;SDS011;4876;42.656;23.292;2023-02-21T14:20:49;5.20;;;2.20;;
9675;SDS011;4876;42.656;23.292;2023-02-21T14:23:20;5.17;;;2.07;;
9675;SDS011;4876;42.656;23.292;2023-02-21T14:25:59;7.63;;;2.30;;
9675;SDS011;4876;42.656;23.292;2023-02-21T14:31:49;6.77;;;2.30;;
9675;SDS011;4876;42.656;23.292;2023-02-21T14:34:23;5.53;;;1.80;;
9675;SDS011;4876;42.656;23.292;2023-02-21T14:36:55;7.50;;;2.23;;
9675;SDS011;4876;42.656;23.292;2023-02-21T14:39:30;3.27;;;1.60;;
9675;SDS011;4876;42.656;23.292;2023-02-21T14:42:03;3.30;;;1.70;;
9675;SDS011;4876;42.656;23.292;2023-02-21T14:44:47;3.33;;;2.00;;
9675;SDS011;4876;42.656;23.292;2023-02-21T14:47:33;4.30;;;1.93;;
9675;SDS011;4876;42.656;23.292;2023-02-21T14:50:16;4.17;;;1.83;;
9675;SDS011;4876;42.656;23.292;2023-02-21T14:53:10;4.37;;;1.80;;
9675;SDS011;4876;42.656;23.292;2023-02-21T14:56:01;5.23;;;1.90;;
9675;SDS011;4876;42.656;23.292;2023-02-21T15:01:58;3.80;;;2.03;;
9675;SDS011;4876;42.656;23.292;2023-02-21T15:04:36;4.57;;;1.87;;
9675;SDS011;4876;42.656;23.292;2023-02-21T15:07:10;7.40;;;1.90;;
9675;SDS011;4876;42.656;23.292;2023-02-21T15:12:35;5.23;;;2.10;;
9675;SDS011;4876;42.656;23.292;2023-02-21T15:15:11;3.53;;;2.27;;
9675;SDS011;4876;42.656;23.292;2023-02-21T15:17:41;13.03;;;2.30;;
9675;SDS011;4876;42.656;23.292;2023-02-21T15:20:12;6.70;;;2.20;;
9675;SDS011;4876;42.656;23.292;2023-02-21T15:22:41;3.90;;;1.70;;
9675;SDS011;4876;42.656;23.292;2023-02-21T15:25:16;4.77;;;1.83;;
9675;SDS011;4876;42.656;23.292;2023-02-21T15:28:02;3.23;;;1.77;;
9675;SDS011;4876;42.656;23.292;2023-02-21T15:30:32;8.57;;;2.20;;
9675;SDS011;4876;42.656;23.292;2023-02-21T15:33:04;5.10;;;2.30;;
9675;SDS011;4876;42.656;23.292;2023-02-21T15:35:37;6.07;;;2.30;;
9675;SDS011;4876;42.656;23.292;2023-02-21T15:38:06;3.20;;;2.10;;
9675;SDS011;4876;42.656;23.292;2023-02-21T15:40:42;3.30;;;2.00;;
9675;SDS011;4876;42.656;23.292;2023-02-21T15:43:16;3.77;;;2.27;;
9675;SDS011;4876;42.656;23.292;2023-02-21T15:45:50;3.77;;;2.13;;
9675;SDS011;4876;42.656;23.292;2023-02-21T15:48:18;5.43;;;2.40;;
9675;SDS011;4876;42.656;23.292;2023-02-21T15:50:46;6.73;;;2.13;;
9675;SDS011;4876;42.656;23.292;2023-02-21T15:53:15;5.97;;;2.10;;
9675;SDS011;4876;42.656;23.292;2023-02-21T15:55:45;7.93;;;2.43;;
9675;SDS011;4876;42.656;23.292;2023-02-21T15:58:18;5.23;;;2.27;;